Time;durP1;ratioP1;P1;durP2;ratioP2;P2;SDS_P1;SDS_P2;PMS_P1;PMS_P2;Temp;Humidity;BMP_temperature;BMP_pressure;BME280_temperature;BME280_humidity;BME280_pressure;Samples;Min_cycle;Max_cycle;Signal;HPM_P1;HPM_P2
2022/07/19 00:01:42;;;;;;;3.47;2.30;;;;;;;21.48;47.23;99240.72;5055269;28;20044;-78
2022/07/19 00:04:07;;;;;;;4.57;2.63;;;;;;;21.31;47.51;99238.72;5035391;28;20033;-78
2022/07/19 00:06:33;;;;;;;4.72;2.40;;;;;;;21.15;47.53;99233.94;5051766;28;20028;-78
2022/07/19 00:08:59;;;;;;;5.45;2.25;;;;;;;21.23;47.66;99241.38;5052056;28;20025;-78
2022/07/19 00:11:24;;;;;;;4.72;2.72;;;;;;;21.11;47.85;99238.38;5071784;28;20540;-78
2022/07/19 00:13:50;;;;;;;3.47;2.60;;;;;;;21.07;47.46;99238.19;5064548;28;20036;-78
2022/07/19 00:16:15;;;;;;;2.78;2.17;;;;;;;21.05;48.26;99228.75;5073078;28;20040;-78
2022/07/19 00:18:42;;;;;;;3.67;2.25;;;;;;;21.17;48.05;99237.13;5054776;28;20397;-78
2022/07/19 00:21:07;;;;;;;5.50;3.28;;;;;;;21.19;47.90;99235.72;5071730;28;20028;-78
2022/07/19 00:23:32;;;;;;;7.57;2.30;;;;;;;21.21;47.90;99227.28;5071172;28;20043;-78
2022/07/19 00:25:58;;;;;;;3.42;2.38;;;;;;;21.11;47.92;99222.09;5068414;28;20040;-78
2022/07/19 00:28:23;;;;;;;5.18;2.25;;;;;;;21.04;48.10;99227.94;5064088;28;20029;-78
2022/07/19 00:30:48;;;;;;;4.20;2.38;;;;;;;21.13;48.23;99230.72;5087277;28;20039;-78
2022/07/19 00:33:14;;;;;;;3.22;2.72;;;;;;;21.05;48.22;99223.31;5054760;28;20590;-78
2022/07/19 00:35:40;;;;;;;3.50;2.17;;;;;;;21.01;48.25;99230.44;5071332;28;20074;-78
2022/07/19 00:38:07;;;;;;;3.60;2.40;;;;;;;20.70;48.77;99227.63;5070269;28;20437;-78
2022/07/19 00:40:33;;;;;;;4.97;2.22;;;;;;;20.58;48.75;99205.63;5071184;28;20032;-78
2022/07/19 00:42:59;;;;;;;2.55;2.35;;;;;;;20.82;48.76;99225.97;5071210;28;20072;-78
2022/07/19 00:45:24;;;;;;;3.80;2.22;;;;;;;20.87;48.81;99236.72;5071198;28;20091;-78
2022/07/19 00:47:50;;;;;;;3.15;2.17;;;;;;;20.61;49.16;99235.69;5069261;28;20060;-78
2022/07/19 00:50:16;;;;;;;2.47;2.28;;;;;;;20.52;49.42;99231.28;5069184;28;20052;-78
2022/07/19 00:52:45;;;;;;;3.53;2.50;;;;;;;20.49;49.24;99215.59;5054187;28;20499;-78
2022/07/19 00:55:11;;;;;;;6.38;2.88;;;;;;;20.54;49.33;99229.88;5052010;28;20358;-78
2022/07/19 00:57:39;;;;;;;3.08;2.38;;;;;;;20.39;49.39;99234.81;5050739;28;20048;-78
2022/07/19 01:00:08;;;;;;;2.72;2.25;;;;;;;20.31;49.63;99214.63;5067273;28;20025;-78
2022/07/19 01:02:34;;;;;;;3.50;2.50;;;;;;;20.30;49.61;99212.22;5067933;28;20059;-78
2022/07/19 01:05:00;;;;;;;3.72;2.70;;;;;;;19.69;53.30;99235.03;5071908;28;20024;-78
2022/07/19 01:07:26;;;;;;;3.63;2.90;;;;;;;19.90;50.93;99228.13;5070520;28;20494;-78
2022/07/19 01:09:51;;;;;;;2.53;2.33;;;;;;;19.77;51.21;99234.34;5071123;28;20040;-78
2022/07/19 01:12:19;;;;;;;3.45;3.15;;;;;;;19.95;50.73;99233.47;5070766;28;20035;-78
2022/07/19 01:14:44;;;;;;;3.78;2.65;;;;;;;20.11;50.11;99234.78;5087660;28;20031;-78
2022/07/19 01:17:09;;;;;;;3.25;2.30;;;;;;;20.25;50.04;99231.31;5087365;28;20419;-78
2022/07/19 01:19:35;;;;;;;3.50;2.53;;;;;;;20.26;49.71;99227.47;5070777;28;20016;-78
2022/07/19 01:22:00;;;;;;;4.50;2.35;;;;;;;20.16;49.82;99225.72;5046217;28;20395;-78
2022/07/19 01:24:27;;;;;;;4.93;2.80;;;;;;;19.84;51.01;99237.47;5070459;28;20218;-78
2022/07/19 01:26:52;;;;;;;6.00;2.97;;;;;;;20.07;50.63;99241.13;5053608;28;20032;-78
2022/07/19 01:29:18;;;;;;;5.10;2.72;;;;;;;20.08;50.38;99238.09;5070921;28;20024;-78
2022/07/19 01:31:44;;;;;;;3.83;2.50;;;;;;;20.05;50.52;99237.91;5047956;28;20403;-78
2022/07/19 01:34:09;;;;;;;3.00;2.50;;;;;;;19.92;50.46;99225.94;5048580;28;20032;-78
2022/07/19 01:36:35;;;;;;;3.30;2.63;;;;;;;19.84;50.39;99244.78;5045044;28;20032;-78
2022/07/19 01:39:00;;;;;;;3.72;2.38;;;;;;;19.77;50.21;99233.53;5070693;28;20037;-78
2022/07/19 01:41:26;;;;;;;3.95;2.38;;;;;;;19.64;50.87;99223.47;5050252;28;20031;-78
2022/07/19 01:43:51;;;;;;;2.45;2.20;;;;;;;19.98;50.82;99240.19;5050441;28;20028;-78
2022/07/19 01:46:17;;;;;;;4.57;2.80;;;;;;;19.97;50.35;99236.69;5067076;28;20025;-78
2022/07/19 01:48:42;;;;;;;3.42;2.85;;;;;;;19.93;50.75;99237.56;5058373;28;20056;-78
2022/07/19 01:51:09;;;;;;;3.95;2.78;;;;;;;19.83;50.45;99224.22;5085168;28;20031;-78
2022/07/19 01:53:35;;;;;;;2.45;2.25;;;;;;;19.77;50.67;99230.81;5070294;28;20159;-78
2022/07/19 01:56:03;;;;;;;4.22;2.67;;;;;;;19.66;50.93;99229.44;5071343;28;20099;-78
2022/07/19 01:58:29;;;;;;;3.88;2.70;;;;;;;19.76;51.10;99227.34;5070499;28;20392;-78
2022/07/19 02:00:54;;;;;;;3.60;2.70;;;;;;;19.81;50.82;99234.56;5066817;28;20031;-78
2022/07/19 02:03:20;;;;;;;4.50;2.95;;;;;;;19.88;50.33;99241.19;5051320;28;20028;-78
2022/07/19 02:05:45;;;;;;;2.35;2.00;;;;;;;19.81;50.58;99237.28;5050167;28;20466;-78
2022/07/19 02:08:11;;;;;;;4.97;2.60;;;;;;;19.61;50.72;99226.81;5069005;28;20028;-78
2022/07/19 02:10:36;;;;;;;3.78;2.58;;;;;;;19.51;51.04;99226.97;5069034;28;20500;-78
2022/07/19 02:13:02;;;;;;;3.72;2.60;;;;;;;19.41;51.57;99228.75;5050048;28;20524;-78
2022/07/19 02:15:27;;;;;;;4.55;2.42;;;;;;;19.33;51.49;99213.16;5066240;28;20029;-78
2022/07/19 02:17:53;;;;;;;3.40;2.70;;;;;;;19.54;51.75;99231.78;5057908;28;20423;-78
2022/07/19 02:20:18;;;;;;;6.53;2.53;;;;;;;19.43;51.22;99231.16;5045298;28;20116;-78
2022/07/19 02:22:45;;;;;;;3.55;2.40;;;;;;;19.20;51.87;99197.66;5049704;28;20044;-78
2022/07/19 02:25:11;;;;;;;6.38;3.28;;;;;;;19.51;51.33;99240.50;5066157;28;20087;-78
2022/07/19 02:27:36;;;;;;;3.03;2.53;;;;;;;19.32;51.69;99235.09;5052285;28;20025;-77
2022/07/19 02:30:02;;;;;;;3.78;2.88;;;;;;;19.41;51.19;99239.59;5065445;28;20021;-78
2022/07/19 02:32:28;;;;;;;7.50;3.25;;;;;;;19.25;51.80;99237.38;5049581;28;20160;-78
2022/07/19 02:34:54;;;;;;;3.35;2.55;;;;;;;19.17;51.45;99225.34;5050932;28;20104;-78
2022/07/19 02:37:19;;;;;;;3.30;2.60;;;;;;;19.23;51.50;99234.97;5049214;28;20098;-78
2022/07/19 02:39:45;;;;;;;3.22;2.90;;;;;;;19.26;51.50;99242.50;5049253;28;20033;-78
2022/07/19 02:42:10;;;;;;;6.82;2.95;;;;;;;19.32;51.53;99245.94;5049277;28;20384;-78
2022/07/19 02:44:35;;;;;;;6.00;2.78;;;;;;;19.31;51.92;99245.13;5049448;28;20040;-78
2022/07/19 02:47:01;;;;;;;3.15;2.63;;;;;;;19.12;51.48;99252.47;5049350;28;20425;-78
2022/07/19 02:49:26;;;;;;;4.50;2.72;;;;;;;19.06;51.96;99242.84;5058752;28;20078;-78
2022/07/19 02:51:52;;;;;;;5.85;2.53;;;;;;;19.13;52.01;99239.75;5044289;28;20396;-78
2022/07/19 02:54:17;;;;;;;3.85;2.88;;;;;;;19.00;51.95;99238.56;5052638;28;20043;-78
2022/07/19 02:56:42;;;;;;;4.55;2.72;;;;;;;19.05;52.18;99252.03;5070489;28;20112;-78
2022/07/19 02:59:08;;;;;;;5.75;2.83;;;;;;;18.97;52.46;99260.00;5067965;28;20406;-78
2022/07/19 03:01:33;;;;;;;3.47;3.03;;;;;;;18.74;52.72;99267.09;5070677;28;20037;-78
2022/07/19 03:03:59;;;;;;;3.53;2.55;;;;;;;18.69;52.79;99237.44;5070821;28;20033;-78
2022/07/19 03:06:25;;;;;;;3.97;2.47;;;;;;;18.89;52.02;99255.28;5068848;28;20399;-78
2022/07/19 03:08:51;;;;;;;5.95;2.80;;;;;;;18.85;52.39;99249.63;5069462;28;20032;-78
2022/07/19 03:11:17;;;;;;;6.78;2.80;;;;;;;18.86;52.03;99248.53;5085014;28;20069;-78
2022/07/19 03:13:42;;;;;;;3.80;2.70;;;;;;;18.70;52.46;99241.72;5070732;28;20515;-77
2022/07/19 03:16:08;;;;;;;4.57;2.55;;;;;;;18.86;52.86;99243.13;5069458;28;20113;-78
2022/07/19 03:18:34;;;;;;;3.13;2.83;;;;;;;18.95;52.29;99245.97;5069414;28;20029;-78
2022/07/19 03:21:00;;;;;;;4.15;2.83;;;;;;;19.06;51.76;99253.66;5050748;28;20033;-78
2022/07/19 03:23:27;;;;;;;5.30;2.63;;;;;;;18.90;52.37;99254.16;5085572;28;20038;-78
2022/07/19 03:25:52;;;;;;;3.28;2.58;;;;;;;18.74;52.43;99231.94;5074443;28;20028;-78
2022/07/19 03:28:18;;;;;;;2.70;2.50;;;;;;;19.01;52.42;99242.09;5072433;28;20024;-78
2022/07/19 03:30:44;;;;;;;3.67;3.13;;;;;;;19.05;52.51;99254.75;5088605;28;20423;-77
2022/07/19 03:33:10;;;;;;;4.45;2.97;;;;;;;18.79;53.05;99258.91;5089747;28;20032;-78
2022/07/19 03:35:36;;;;;;;3.92;2.83;;;;;;;18.61;52.97;99255.09;5055875;28;20033;-78
2022/07/19 03:38:01;;;;;;;4.80;2.70;;;;;;;18.29;54.27;99243.31;5073602;28;20029;-78
2022/07/19 03:40:27;;;;;;;5.15;2.60;;;;;;;18.44;53.34;99245.81;5055356;28;20027;-78
2022/07/19 03:42:52;;;;;;;6.28;3.15;;;;;;;18.70;52.83;99257.94;5072336;28;20343;-78
2022/07/19 03:45:18;;;;;;;2.90;2.70;;;;;;;18.48;53.27;99236.06;5072484;28;20044;-78
2022/07/19 03:47:43;;;;;;;4.15;2.95;;;;;;;18.61;53.23;99235.34;5072266;28;20056;-77
2022/07/19 03:50:09;;;;;;;4.72;2.72;;;;;;;18.74;52.72;99242.75;5051864;28;20037;-78
2022/07/19 03:52:34;;;;;;;4.32;2.80;;;;;;;18.72;52.72;99249.56;5086141;28;20601;-78
2022/07/19 03:55:00;;;;;;;4.30;3.55;;;;;;;18.65;53.23;99247.22;5072370;28;20361;-78
2022/07/19 03:57:25;;;;;;;2.63;2.42;;;;;;;18.49;52.99;99251.22;5073383;28;20099;-78
2022/07/19 03:59:50;;;;;;;6.53;2.83;;;;;;;18.32;54.67;99245.44;5071690;28;20076;-78
2022/07/19 04:02:16;;;;;;;3.15;2.85;;;;;;;18.06;55.14;99261.16;5049025;28;20368;-78
2022/07/19 04:04:41;;;;;;;4.65;3.22;;;;;;;17.96;56.04;99258.53;5086534;28;20454;-78
2022/07/19 04:07:06;;;;;;;3.65;2.70;;;;;;;18.28;54.16;99258.72;5055230;28;20035;-78
2022/07/19 04:09:32;;;;;;;3.80;3.05;;;;;;;18.38;53.54;99250.50;5071861;28;20028;-78
2022/07/19 04:11:57;;;;;;;3.47;2.60;;;;;;;18.59;52.90;99240.25;5051420;28;20037;-78
2022/07/19 04:14:23;;;;;;;7.70;2.78;;;;;;;18.55;53.60;99250.03;5053350;28;20028;-77
2022/07/19 04:16:48;;;;;;;2.97;2.70;;;;;;;18.64;53.55;99259.94;5052026;28;20033;-78
2022/07/19 04:19:14;;;;;;;3.88;2.80;;;;;;;18.49;53.31;99254.72;5069894;28;20489;-79
2022/07/19 04:21:39;;;;;;;5.05;2.67;;;;;;;18.75;53.52;99265.19;5086847;28;20028;-79
2022/07/19 04:24:07;;;;;;;7.07;3.20;;;;;;;18.26;58.28;99270.94;5089857;28;20035;-79
2022/07/19 04:26:33;;;;;;;8.45;3.50;;;;;;;17.87;59.48;99249.44;5072700;28;20147;-79
2022/07/19 04:28:58;;;;;;;6.15;3.13;;;;;;;18.06;57.92;99249.53;5073099;28;20488;-79
2022/07/19 04:31:24;;;;;;;4.65;2.95;;;;;;;17.96;59.91;99250.44;5072968;28;20488;-79
2022/07/19 04:33:49;;;;;;;8.90;3.08;;;;;;;18.16;61.54;99265.63;5056208;28;20120;-79
2022/07/19 04:36:14;;;;;;;7.75;3.58;;;;;;;18.21;61.59;99274.50;5072812;28;20025;-79
2022/07/19 04:38:40;;;;;;;5.60;3.45;;;;;;;18.08;61.90;99250.06;5089357;28;20369;-79
2022/07/19 04:41:08;;;;;;;5.72;3.95;;;;;;;17.90;62.96;99236.19;5055229;28;20036;-79
2022/07/19 04:43:34;;;;;;;4.43;3.28;;;;;;;18.21;62.77;99273.69;5055553;28;20251;-79
2022/07/19 04:45:59;;;;;;;3.63;2.60;;;;;;;18.47;63.19;99275.84;5072425;28;20534;-79
2022/07/19 04:48:26;;;;;;;7.07;3.38;;;;;;;18.57;63.36;99273.00;5072291;28;20542;-79
2022/07/19 04:50:51;;;;;;;7.63;3.67;;;;;;;18.67;62.32;99278.25;5072911;28;20717;-79
2022/07/19 04:53:17;;;;;;;6.03;3.30;;;;;;;18.74;61.98;99261.69;5072148;28;20059;-79
2022/07/19 04:55:42;;;;;;;6.32;3.33;;;;;;;18.97;60.75;99277.06;5089074;28;20039;-79
2022/07/19 04:58:07;;;;;;;4.97;3.40;;;;;;;18.89;60.33;99266.91;5071747;28;20175;-79
2022/07/19 05:00:33;;;;;;;8.43;4.13;;;;;;;19.04;60.04;99276.69;5055074;28;20032;-79
2022/07/19 05:02:58;;;;;;;4.30;3.33;;;;;;;19.23;60.33;99280.19;5084861;28;20032;-79
2022/07/19 05:05:24;;;;;;;7.15;3.33;;;;;;;19.26;61.21;99274.97;5053147;28;20048;-79
2022/07/19 05:07:49;;;;;;;4.75;3.47;;;;;;;19.39;61.20;99273.47;5034952;28;20025;-79
2022/07/19 05:10:15;;;;;;;4.95;3.40;;;;;;;19.32;60.31;99273.00;5072751;28;20391;-79
2022/07/19 05:12:40;;;;;;;5.78;3.20;;;;;;;19.18;60.42;99251.28;5055101;28;20097;-79
2022/07/19 05:15:07;;;;;;;4.82;3.38;;;;;;;19.28;60.08;99277.41;5032501;28;20028;-78
2022/07/19 05:17:33;;;;;;;5.80;3.80;;;;;;;19.18;59.24;99270.25;5069330;28;20052;-79
2022/07/19 05:19:59;;;;;;;13.13;3.10;;;;;;;19.01;60.09;99233.97;5054387;28;20054;-79
2022/07/19 05:22:25;;;;;;;11.77;4.20;;;;;;;19.15;60.39;99270.03;5054979;28;20238;-79
2022/07/19 05:24:53;;;;;;;18.63;4.80;;;;;;;19.20;60.71;99273.44;5071797;28;20024;-79
2022/07/19 05:27:19;;;;;;;16.88;4.82;;;;;;;19.23;60.69;99263.94;5071096;28;20557;-79
2022/07/19 05:29:45;;;;;;;17.23;5.22;;;;;;;19.19;61.28;99258.31;5072887;28;20261;-79
2022/07/19 05:32:11;;;;;;;17.13;4.45;;;;;;;19.25;62.11;99278.78;5054631;28;20029;-79
2022/07/19 05:34:37;;;;;;;11.07;4.43;;;;;;;19.19;60.91;99252.91;5071612;28;20021;-79
2022/07/19 05:37:02;;;;;;;9.73;5.43;;;;;;;19.24;61.03;99271.75;5054479;28;20039;-79
2022/07/19 05:39:28;;;;;;;12.05;4.30;;;;;;;19.25;61.51;99272.56;5054752;28;20036;-79
2022/07/19 05:41:53;;;;;;;7.60;4.68;;;;;;;19.40;61.44;99286.72;5053124;28;20064;-79
2022/07/19 05:44:19;;;;;;;11.50;5.40;;;;;;;19.48;61.48;99297.97;5072985;28;20457;-79
2022/07/19 05:46:44;;;;;;;9.55;4.60;;;;;;;19.34;60.61;99279.78;5070998;28;20028;-79
2022/07/19 05:49:13;;;;;;;9.30;4.78;;;;;;;19.46;60.56;99279.31;5054387;28;20170;-79
2022/07/19 05:51:41;;;;;;;7.95;5.00;;;;;;;19.44;61.24;99292.31;5069961;28;20036;-80
2022/07/19 05:54:07;;;;;;;7.07;4.28;;;;;;;19.41;62.57;99291.03;5071967;28;20025;-79
2022/07/19 05:56:33;;;;;;;8.65;4.22;;;;;;;19.22;61.30;99257.72;5087745;28;20117;-79
2022/07/19 05:58:58;;;;;;;8.40;4.53;;;;;;;19.25;60.16;99267.16;5054316;28;20596;-79
2022/07/19 06:01:24;;;;;;;8.05;3.67;;;;;;;19.39;59.86;99289.72;5050390;28;20033;-79
2022/07/19 06:03:49;;;;;;;6.25;4.10;;;;;;;19.59;60.66;99289.41;5086682;28;20025;-79
2022/07/19 06:06:15;;;;;;;8.13;4.15;;;;;;;19.68;59.89;99284.88;5087726;28;20396;-79
2022/07/19 06:08:41;;;;;;;8.27;4.05;;;;;;;19.71;59.81;99289.72;5070463;28;20510;-79
2022/07/19 06:11:07;;;;;;;16.92;4.03;;;;;;;19.64;60.17;99272.22;5045523;28;20389;-79
2022/07/19 06:13:32;;;;;;;5.72;3.50;;;;;;;19.66;59.40;99264.63;5059141;28;20036;-79
2022/07/19 06:15:58;;;;;;;6.45;3.47;;;;;;;19.75;58.79;99279.91;5050988;28;20064;-79
2022/07/19 06:18:23;;;;;;;4.03;2.83;;;;;;;20.14;55.98;99284.88;5050421;28;20029;-79
2022/07/19 06:20:49;;;;;;;27.05;4.20;;;;;;;20.22;58.70;99292.34;5073772;28;20028;-79
2022/07/19 06:23:14;;;;;;;9.55;3.67;;;;;;;20.22;60.11;99281.50;5065699;28;20043;-79
2022/07/19 06:25:39;;;;;;;8.07;3.45;;;;;;;20.24;57.13;99265.75;5051492;28;20029;-79
2022/07/19 06:28:05;;;;;;;3.47;2.92;;;;;;;20.31;56.93;99243.66;5066940;28;20052;-79
2022/07/19 06:30:30;;;;;;;5.75;3.20;;;;;;;21.23;56.24;99280.16;5054546;28;20020;-79
2022/07/19 06:32:56;;;;;;;7.78;3.80;;;;;;;21.16;56.46;99285.22;5062222;28;20503;-79
2022/07/19 06:35:21;;;;;;;9.43;3.88;;;;;;;20.84;56.36;99280.75;5070455;28;20028;-79
2022/07/19 06:37:46;;;;;;;5.95;2.90;;;;;;;21.23;54.32;99268.50;5053276;28;20038;-79
2022/07/19 06:40:12;;;;;;;4.15;3.53;;;;;;;21.58;52.75;99278.50;5069382;28;20048;-79
2022/07/19 06:42:37;;;;;;;8.55;3.45;;;;;;;21.48;54.38;99292.34;5071278;28;20086;-79
2022/07/19 06:45:04;;;;;;;6.97;3.30;;;;;;;21.49;54.33;99300.16;5053654;28;20028;-79
2022/07/19 06:47:30;;;;;;;4.35;3.30;;;;;;;21.45;53.49;99284.78;5052972;28;20037;-79
2022/07/19 06:49:55;;;;;;;11.20;3.88;;;;;;;21.92;51.92;99283.38;5070170;28;20111;-79
2022/07/19 06:52:20;;;;;;;6.82;2.90;;;;;;;21.90;52.78;99274.72;5049751;28;20498;-79
2022/07/19 06:54:46;;;;;;;5.28;2.90;;;;;;;22.48;50.46;99288.06;5072192;28;20024;-79
2022/07/19 06:57:12;;;;;;;7.38;3.28;;;;;;;22.17;52.14;99283.50;5073925;28;20419;-79
2022/07/19 06:59:37;;;;;;;10.18;3.38;;;;;;;22.08;53.83;99285.38;5073753;28;20062;-79
2022/07/19 07:02:04;;;;;;;4.72;2.88;;;;;;;22.27;51.01;99275.06;5074379;28;20032;-79
2022/07/19 07:04:30;;;;;;;5.78;3.20;;;;;;;22.72;49.71;99275.69;5073665;28;20024;-79
2022/07/19 07:06:56;;;;;;;4.72;2.92;;;;;;;22.36;51.50;99251.44;5057382;28;20063;-79
2022/07/19 07:09:22;;;;;;;10.30;3.83;;;;;;;22.62;52.47;99272.47;5074021;28;20047;-79
2022/07/19 07:11:47;;;;;;;5.82;3.22;;;;;;;22.56;52.01;99262.84;5054192;28;20029;-79
2022/07/19 07:14:13;;;;;;;4.97;3.80;;;;;;;22.39;52.66;99291.59;5070266;28;20108;-79
2022/07/19 07:16:39;;;;;;;9.98;3.55;;;;;;;22.37;51.77;99287.56;5054392;28;20044;-79
2022/07/19 07:19:04;;;;;;;9.00;3.22;;;;;;;22.42;52.37;99282.00;5055218;28;20036;-79
2022/07/19 07:21:33;;;;;;;5.80;3.20;;;;;;;22.53;51.75;99274.34;5064198;28;20024;-79
2022/07/19 07:23:58;;;;;;;3.95;3.30;;;;;;;22.59;50.73;99276.63;5054737;28;20036;-79
2022/07/19 07:26:24;;;;;;;4.97;3.22;;;;;;;22.82;50.92;99266.44;5053165;28;20041;-79
2022/07/19 07:28:49;;;;;;;6.45;4.13;;;;;;;22.91;51.51;99270.75;5053239;28;20115;-79
2022/07/19 07:31:14;;;;;;;6.97;3.63;;;;;;;23.32;50.40;99270.31;5041484;28;20029;-79
2022/07/19 07:33:40;;;;;;;5.32;3.63;;;;;;;23.38;50.85;99276.41;5039267;28;20468;-80
2022/07/19 07:36:05;;;;;;;7.03;3.53;;;;;;;23.36;49.43;99243.25;5072324;28;20025;-79
2022/07/19 07:38:31;;;;;;;6.57;2.80;;;;;;;23.65;48.72;99256.97;5073836;28;20040;-79
2022/07/19 07:40:56;;;;;;;6.70;3.42;;;;;;;23.70;48.86;99271.22;5072883;28;20405;-79
2022/07/19 07:43:21;;;;;;;5.30;3.10;;;;;;;23.89;48.19;99256.44;5074234;28;20101;-79
2022/07/19 07:45:47;;;;;;;5.72;3.60;;;;;;;23.85;49.00;99278.88;5072406;28;20032;-79
2022/07/19 07:48:12;;;;;;;6.57;3.38;;;;;;;24.14;47.85;99280.13;5058765;28;20524;-79
2022/07/19 07:50:38;;;;;;;12.55;3.22;;;;;;;23.92;49.31;99267.47;5069672;28;20496;-79
2022/07/19 07:53:03;;;;;;;8.38;3.40;;;;;;;24.00;48.79;99268.59;5067507;28;20044;-80
2022/07/19 07:55:28;;;;;;;5.53;3.50;;;;;;;24.04;50.54;99248.53;5054020;28;20052;-79
2022/07/19 07:57:54;;;;;;;8.57;3.67;;;;;;;24.05;47.38;99266.50;5053583;28;20036;-79
2022/07/19 08:00:19;;;;;;;7.82;3.92;;;;;;;24.22;47.43;99252.78;5053360;28;20123;-79
2022/07/19 08:02:46;;;;;;;5.28;2.90;;;;;;;24.47;47.89;99256.53;5069931;28;20041;-79
2022/07/19 08:05:12;;;;;;;6.20;2.90;;;;;;;24.52;48.55;99254.44;5051633;28;20029;-79
2022/07/19 08:07:38;;;;;;;4.55;3.10;;;;;;;24.52;48.59;99253.63;5052196;28;20124;-79
2022/07/19 08:10:06;;;;;;;10.77;3.67;;;;;;;24.53;49.00;99250.56;5052250;28;20029;-80
2022/07/19 08:12:32;;;;;;;6.65;3.20;;;;;;;24.64;47.49;99250.97;5065134;28;20028;-80
2022/07/19 08:14:57;;;;;;;4.13;2.85;;;;;;;25.02;46.45;99242.72;5088927;28;20025;-79
2022/07/19 08:17:23;;;;;;;10.73;3.38;;;;;;;25.06;47.13;99243.63;5068240;28;20115;-79
2022/07/19 08:19:48;;;;;;;8.18;3.65;;;;;;;24.93;44.42;99231.84;5055677;28;20047;-79
2022/07/19 08:22:18;;;;;;;7.45;3.08;;;;;;;25.13;43.66;99244.72;5072257;28;20119;-79
2022/07/19 08:24:44;;;;;;;5.88;3.72;;;;;;;25.24;45.26;99245.91;5072237;28;20412;-79
2022/07/19 08:27:10;;;;;;;3.88;3.00;;;;;;;25.49;45.55;99240.56;5069459;28;20033;-79
2022/07/19 08:29:35;;;;;;;5.13;2.70;;;;;;;25.49;45.37;99235.09;5062773;28;20033;-79
2022/07/19 08:32:00;;;;;;;3.70;2.83;;;;;;;25.67;45.11;99228.28;5050781;28;20029;-79
2022/07/19 08:34:26;;;;;;;3.95;3.28;;;;;;;25.87;44.67;99246.56;5067836;28;20024;-79
2022/07/19 08:36:51;;;;;;;5.50;2.90;;;;;;;25.68;46.06;99241.66;5071549;28;20032;-80
2022/07/19 08:39:17;;;;;;;5.00;2.63;;;;;;;25.71;45.15;99240.13;5070919;28;20067;-79
2022/07/19 08:41:44;;;;;;;5.45;2.88;;;;;;;25.74;42.73;99225.81;5054167;28;20028;-80
2022/07/19 08:44:10;;;;;;;7.47;4.15;;;;;;;26.03;43.01;99237.38;5041736;28;20036;-79
2022/07/19 08:46:36;;;;;;;4.70;2.95;;;;;;;26.09;44.01;99243.44;5077052;28;20047;-79
2022/07/19 08:49:02;;;;;;;5.93;3.42;;;;;;;26.07;44.01;99207.38;5071256;28;20024;-80
2022/07/19 08:51:27;;;;;;;3.13;2.70;;;;;;;26.40;43.90;99230.00;5075413;28;20028;-79
2022/07/19 08:53:53;;;;;;;3.70;3.00;;;;;;;26.58;43.56;99230.56;5071235;28;20017;-79
2022/07/19 08:59:04;;;;;;;7.63;2.83;;;;;;;26.55;44.20;99221.09;5070809;28;20089;-79
2022/07/19 09:01:29;;;;;;;3.92;2.92;;;;;;;26.88;43.11;99228.34;5054464;28;20033;-80
2022/07/19 09:04:05;;;;;;;8.10;4.32;;;;;;;26.78;42.97;99235.09;5054726;28;20396;-79
2022/07/19 09:06:53;;;;;;;3.80;3.08;;;;;;;26.90;43.59;99229.59;5072663;28;20032;-79
2022/07/19 09:09:39;;;;;;;3.95;2.70;;;;;;;26.89;43.33;99233.47;5064450;28;20059;-79
2022/07/19 09:12:05;;;;;;;3.65;2.95;;;;;;;26.96;43.65;99230.94;5052226;28;20480;-79
2022/07/19 09:14:33;;;;;;;4.40;3.00;;;;;;;27.11;43.02;99226.66;5067557;28;20056;-79
2022/07/19 09:17:11;;;;;;;8.02;3.40;;;;;;;27.49;43.18;99224.28;5068269;28;20036;-80
2022/07/19 09:19:45;;;;;;;7.35;3.72;;;;;;;27.46;40.88;99227.69;5047053;28;20036;-79
2022/07/19 09:22:16;;;;;;;9.43;3.13;;;;;;;27.70;42.12;99218.53;5083848;28;20075;-79
2022/07/19 09:24:44;;;;;;;7.60;3.53;;;;;;;27.70;41.43;99219.34;5071201;28;20060;-79
2022/07/19 09:27:18;;;;;;;5.20;3.20;;;;;;;27.67;42.83;99202.81;5054152;28;20070;-79
2022/07/19 09:29:52;;;;;;;10.30;3.47;;;;;;;27.91;40.40;99210.88;5054477;28;20539;-79
2022/07/19 09:32:22;;;;;;;6.32;3.17;;;;;;;28.00;40.94;99195.84;5067336;28;20103;-79
2022/07/19 09:34:48;;;;;;;3.70;2.78;;;;;;;28.18;41.25;99210.81;5051962;28;20630;-79
2022/07/19 09:37:19;;;;;;;6.40;3.50;;;;;;;28.31;40.19;99202.47;5051810;28;20017;-80
2022/07/19 09:39:50;;;;;;;3.67;2.97;;;;;;;28.26;39.85;99183.53;5050884;28;20295;-79
2022/07/19 09:42:35;;;;;;;5.13;2.40;;;;;;;28.69;41.23;99205.31;5067135;28;20086;-80
2022/07/19 09:45:07;;;;;;;7.07;2.70;;;;;;;28.60;41.22;99185.50;5070788;28;20033;-79
2022/07/19 09:47:38;;;;;;;9.50;3.40;;;;;;;28.85;39.00;99201.34;5069777;28;20048;-80
2022/07/19 09:50:07;;;;;;;7.18;3.60;;;;;;;28.92;39.67;99181.47;5075091;28;20090;-80
2022/07/19 09:52:36;;;;;;;3.58;2.80;;;;;;;28.98;39.16;99188.28;5050602;28;20062;-80
2022/07/19 09:55:06;;;;;;;8.50;3.30;;;;;;;29.20;38.75;99204.09;5052165;28;20530;-80
2022/07/19 09:57:39;;;;;;;7.75;3.10;;;;;;;29.33;39.10;99201.97;5059779;28;20020;-80
2022/07/19 10:00:07;;;;;;;6.55;3.92;;;;;;;29.43;38.65;99193.94;5065712;28;20473;-80
2022/07/19 10:02:36;;;;;;;3.42;3.13;;;;;;;29.51;37.60;99179.13;5050590;28;20481;-80
2022/07/19 10:05:03;;;;;;;3.95;2.88;;;;;;;29.58;37.94;99194.97;5050400;28;20033;-80
2022/07/19 10:07:31;;;;;;;9.80;3.15;;;;;;;29.71;36.83;99190.88;5059414;28;20060;-80
2022/07/19 10:09:58;;;;;;;2.80;2.60;;;;;;;29.98;39.32;99202.78;5033433;28;20033;-80
2022/07/19 10:12:24;;;;;;;3.88;3.17;;;;;;;30.07;39.25;99198.63;5069368;28;20028;-80
2022/07/19 10:14:50;;;;;;;12.05;3.10;;;;;;;30.00;36.56;99189.44;5067813;28;20366;-80
2022/07/19 10:17:18;;;;;;;5.75;3.35;;;;;;;29.98;35.87;99194.53;5050583;28;20115;-80
2022/07/19 10:19:48;;;;;;;4.03;2.75;;;;;;;30.17;37.87;99194.44;5059537;28;20104;-80
2022/07/19 10:22:17;;;;;;;8.90;2.92;;;;;;;30.47;38.32;99198.06;5064875;28;20384;-80
2022/07/19 10:24:43;;;;;;;5.65;3.28;;;;;;;30.55;37.61;99194.28;5070447;28;20123;-80
2022/07/19 10:27:09;;;;;;;5.22;2.90;;;;;;;30.50;37.96;99189.06;5071466;28;20059;-80
2022/07/19 10:29:34;;;;;;;3.42;3.13;;;;;;;30.64;37.73;99177.47;5056806;28;20032;-80
2022/07/19 10:32:08;;;;;;;4.90;3.25;;;;;;;30.63;36.20;99184.94;5066611;28;20025;-80
2022/07/19 10:34:34;;;;;;;2.78;2.58;;;;;;;30.93;36.69;99169.19;5071280;28;20357;-80
2022/07/19 10:36:59;;;;;;;6.75;3.13;;;;;;;30.80;34.71;99176.09;5074274;28;20029;-80
2022/07/19 10:39:36;;;;;;;4.00;3.17;;;;;;;30.89;35.41;99175.84;5074839;28;20433;-80
2022/07/19 10:42:16;;;;;;;4.47;2.95;;;;;;;31.04;34.23;99164.59;5066602;28;20040;-80
2022/07/19 10:44:56;;;;;;;5.88;3.53;;;;;;;31.45;37.47;99161.94;5074897;28;20444;-80
2022/07/19 10:47:37;;;;;;;6.72;3.55;;;;;;;31.52;36.95;99168.31;5068980;28;20027;-80
2022/07/19 10:50:08;;;;;;;3.75;2.88;;;;;;;31.73;36.31;99156.69;5075133;28;20086;-81
2022/07/19 10:52:35;;;;;;;5.13;3.53;;;;;;;31.87;36.08;99159.56;5073512;28;20043;-80
2022/07/19 10:55:20;;;;;;;4.20;3.03;;;;;;;32.00;36.16;99160.09;5090955;28;20035;-80
2022/07/19 10:57:48;;;;;;;5.50;3.05;;;;;;;31.85;32.87;99150.09;5073542;28;20052;-80
2022/07/19 11:00:28;;;;;;;7.75;3.17;;;;;;;32.07;33.06;99146.31;5073954;28;20488;-80
2022/07/19 11:03:25;;;;;;;3.90;3.60;;;;;;;32.32;35.72;99152.81;5074475;28;20036;-80
2022/07/19 11:05:58;;;;;;;4.90;2.53;;;;;;;32.51;32.39;99149.81;5073707;28;20029;-80
2022/07/19 11:08:39;;;;;;;9.55;3.63;;;;;;;32.72;33.10;99144.38;5075009;28;20021;-80
2022/07/19 11:11:13;;;;;;;4.63;2.83;;;;;;;32.77;34.50;99132.94;5073009;28;20119;-80
2022/07/19 11:13:42;;;;;;;4.20;3.10;;;;;;;33.16;33.42;99135.88;5073981;28;20059;-80
2022/07/19 11:16:08;;;;;;;4.85;2.63;;;;;;;33.36;34.34;99128.78;5074254;28;20028;-81
2022/07/19 11:18:33;;;;;;;5.40;2.83;;;;;;;33.48;34.25;99125.66;5056846;28;20403;-81
2022/07/19 11:21:00;;;;;;;4.47;3.10;;;;;;;33.70;33.85;99124.53;5057485;28;20031;-81
2022/07/19 11:23:34;;;;;;;8.40;3.00;;;;;;;33.97;32.19;99111.84;5053879;28;20039;-81
2022/07/19 11:26:10;;;;;;;7.10;3.10;;;;;;;34.07;32.00;99126.91;5053428;28;20681;-81
2022/07/19 11:28:37;;;;;;;6.25;3.45;;;;;;;34.10;31.63;99117.00;5036434;28;20033;-81
2022/07/19 11:31:22;;;;;;;5.63;3.20;;;;;;;33.73;30.43;99106.31;5057266;28;20029;-80
2022/07/19 11:33:50;;;;;;;4.40;3.10;;;;;;;33.82;29.08;99115.00;5071769;28;20031;-81